Flight Track Log - Related Links

Times and Time Zones

All times are in EST time to prevent confusion due to time zone crossing. See the EJA122 flight status page for this flight to view local times or setup timezone preferences in your user account.

Time Position Orientation Groundspeed Altitude Reporting Facility
EST Latitude Longitude Course Direction KTS MPH feet Rate Location/Type
Sat 10:31:54 AM 40.8000 -73.9000 225° Southwest 188 216 1,800  Level New York TRACON
Sat 10:33:00 AM 40.8333 -73.9500 311° West 208 239 5,400 2,952 Climbing New York TRACON
Sat 10:34:00 AM 40.7667 -73.9833 201° Southwest 226 260 8,000 2,850 Climbing New York TRACON
Sat 10:35:00 AM 40.7167 -74.0167 207° Southwest 234 269 11,100 2,000 Climbing New York TRACON
Sat 10:36:00 AM 40.6500 -74.0500 201° Southwest 257 296 12,000 588 Climbing New York TRACON
Sat 10:37:00 AM 40.3018 -74.1240 225° Southwest  Level Estimated
Sat 10:37:33 AM 40.5697 -74.1397 220° Southwest 258 297 12,600  Level New York Center
Sat 10:38:33 AM 40.4881 -74.1603 191° South 273 314 14,100 1,400 Climbing New York Center
Sat 10:39:33 AM 40.4064 -74.1753 188° South 321 369 15,400 1,950 Climbing New York Center
Sat 10:40:33 AM 40.3014 -74.1947 188° South 349 402 18,000 2,450 Climbing New York Center
Sat 10:41:33 AM 40.2219 -74.2097 188° South 343 395 20,300 1,615 Climbing New York Center
Sat 10:43:35 AM 40.0372 -74.2447 188° South 335 386 22,900 1,200 Climbing Washington Center
Sat 10:44:33 AM 39.9461 -74.3061 207° Southwest 335 386 23,900 1,059 Climbing Washington Center
Sat 10:45:34 AM 39.8678 -74.3831 217° Southwest 343 395 25,000 1,131 Climbing Washington Center
Sat 10:46:35 AM 39.7894 -74.4656 219° Southwest 358 412 26,200 1,261 Climbing Washington Center
Sat 10:47:33 AM 39.7236 -74.5528 226° Southwest 353 406 27,500 1,109 Climbing Washington Center
Sat 10:48:34 AM 39.6556 -74.6456 226° Southwest 353 406 28,400 893 Climbing Washington Center
Sat 10:49:34 AM 39.5875 -74.7353 225° Southwest 353 406 29,300 843 Climbing Washington Center
Sat 10:50:35 AM 39.5194 -74.8247 225° Southwest 353 406 30,100 807 Climbing Washington Center
Sat 10:51:33 AM 39.4511 -74.9169 226° Southwest 353 406 30,900 807 Climbing Washington Center
Sat 10:52:34 AM 39.3808 -75.0061 224° Southwest 353 406 31,700 694 Climbing Washington Center
Sat 10:53:34 AM 39.3247 -75.0792 225° Southwest 353 406 32,300 756 Climbing Washington Center
Sat 10:54:33 AM 39.2250 -75.1603 212° Southwest 353 406 33,200 850 Climbing Washington Center
Sat 10:55:34 AM 39.1336 -75.2197 207° Southwest 365 420 34,000 397 Climbing Washington Center
Sat 10:56:34 AM 39.0422 -75.2869 210° Southwest 371 427 34,000  Level Washington Center
Sat 10:57:33 AM 38.9442 -75.3433 204° Southwest 381 438 34,000  Level Washington Center
Sat 10:58:33 AM 38.8486 -75.4078 208° Southwest 388 447 34,000  Level Washington Center
Sat 10:59:34 AM 38.7486 -75.4744 207° Southwest 388 447 34,000  Level Washington Center
Sat 11:00:35 AM 38.6486 -75.5358 206° Southwest 394 453 34,000  Level Washington Center
Sat 11:01:33 AM 38.5525 -75.6022 208° Southwest 394 453 34,000  Level Washington Center
Sat 11:02:34 AM 38.4547 -75.6686 208° Southwest 394 453 34,000  Level Washington Center
Sat 11:03:34 AM 38.3567 -75.7319 207° Southwest 394 453 34,000  Level Washington Center
Sat 11:04:33 AM 38.2542 -75.7875 203° Southwest 399 459 34,000  Level Washington Center
Sat 11:05:33 AM 38.1561 -75.8531 208° Southwest 399 459 34,000  Level Washington Center
Sat 11:06:34 AM 38.0558 -75.9161 206° Southwest 404 465 34,000  Level Washington Center
Sat 11:07:33 AM 37.9578 -75.9789 207° Southwest 404 465 34,000  Level Washington Center
Sat 11:08:34 AM 37.8553 -76.0442 207° Southwest 404 465 34,000  Level Washington Center
Sat 11:09:35 AM 37.7611 -76.1067 208° Southwest 399 459 34,000  Level Washington Center
Sat 11:10:33 AM 37.6567 -76.1689 205° Southwest 399 459 34,000  Level Washington Center
Sat 11:11:34 AM 37.5561 -76.2311 206° Southwest 404 465 34,000  Level Washington Center
Sat 11:12:35 AM 37.4536 -76.2956 207° Southwest 404 465 34,000  Level Washington Center
Sat 11:13:33 AM 37.3531 -76.3575 206° Southwest 404 465 34,000  Level Washington Center
Sat 11:14:33 AM 37.2506 -76.4217 206° Southwest 404 465 34,000  Level Washington Center
Sat 11:15:34 AM 37.1500 -76.4831 206° Southwest 404 465 34,000  Level Washington Center
Sat 11:16:35 AM 37.0453 -76.5469 206° Southwest 404 465 34,000  Level Washington Center
Sat 11:17:33 AM 36.9425 -76.6106 206° Southwest 409 471 34,000  Level Washington Center
Sat 11:18:34 AM 36.8397 -76.6767 207° Southwest 409 471 34,000  Level Washington Center
Sat 11:19:35 AM 36.7347 -76.7400 206° Southwest 409 471 34,000  Level Washington Center
Sat 11:20:33 AM 36.6319 -76.8058 207° Southwest 409 471 34,000  Level Washington Center
Sat 11:21:33 AM 36.5289 -76.8664 205° Southwest 409 471 34,000  Level Washington Center
Sat 11:22:34 AM 36.4261 -76.9292 206° Southwest 414 476 34,000  Level Washington Center
Sat 11:23:35 AM 36.3211 -76.9919 206° Southwest 414 476 34,000  Level Washington Center
Sat 11:24:33 AM 36.2181 -77.0569 207° Southwest 414 476 34,000  Level Washington Center
Sat 11:25:34 AM 36.1336 -77.1350 217° Southwest 401 461 34,000  Level Washington Center
Sat 11:26:35 AM 36.0428 -77.2206 217° Southwest 401 461 34,000  Level Washington Center
Sat 11:27:33 AM 35.9539 -77.3036 217° Southwest 406 467 34,000  Level Washington Center
Sat 11:28:34 AM 35.8631 -77.3886 217° Southwest 412 474 34,000  Level Washington Center
Sat 11:29:35 AM 35.7697 -77.4761 217° Southwest 418 481 34,000  Level Washington Center
Sat 11:30:35 AM 35.6789 -77.5583 216° Southwest 418 481 34,000  Level Washington Center
Sat 11:31:33 AM 35.5897 -77.6431 218° Southwest 418 481 34,000  Level Washington Center
Sat 11:32:34 AM 35.4967 -77.7247 216° Southwest 418 481 34,000  Level Washington Center
Sat 11:33:33 AM 35.4072 -77.8092 218° Southwest 413 475 34,000  Level Washington Center
Sat 11:34:34 AM 35.3139 -77.8906 215° Southwest 413 475 34,000  Level Washington Center
Sat 11:35:35 AM 35.2333 -77.9669 218° Southwest 413 475 34,000  Level Washington Center
Sat 11:36:33 AM 35.1419 -78.0508 217° Southwest 413 475 34,000  Level Washington Center
Sat 11:37:34 AM 35.0503 -78.1367 217° Southwest 413 475 34,000  Level Washington Center
Sat 11:39:55 AM 34.8325 -78.3328 216° Southwest 412 474 34,000  Level Jacksonville Center
Sat 11:40:55 AM 34.7439 -78.4208 219° Southwest 417 480 34,000  Level Jacksonville Center
Sat 11:41:55 AM 34.6467 -78.5014 214° Southwest 422 486 34,000  Level Jacksonville Center
Sat 11:42:55 AM 34.5556 -78.5842 217° Southwest 422 486 34,000 -50 Level Jacksonville Center
Sat 11:43:55 AM 34.4667 -78.6692 218° Southwest 415 478 33,900  Descending Jacksonville Center
Sat 11:44:55 AM 34.3756 -78.7492 216° Southwest 415 478 34,000 50 Climbing Jacksonville Center
Sat 11:45:55 AM 34.2803 -78.8342 216° Southwest 420 483 34,000  Level Jacksonville Center
Sat 11:46:55 AM 34.1889 -78.9136 216° Southwest 420 483 34,000  Level Jacksonville Center
Sat 11:47:55 AM 34.0847 -78.9836 209° Southwest 420 483 34,000  Level Jacksonville Center
Sat 11:48:55 AM 33.9803 -79.0508 208° Southwest 425 489 34,000  Level Jacksonville Center
Sat 11:49:55 AM 33.8781 -79.1181 209° Southwest 425 489 34,000  Level Jacksonville Center
Sat 11:50:55 AM 33.7778 -79.1847 209° Southwest 425 489 34,000  Level Jacksonville Center
Sat 11:51:55 AM 33.6692 -79.2517 207° Southwest 416 479 34,000  Level Jacksonville Center
Sat 11:52:55 AM 33.5689 -79.3181 209° Southwest 411 473 34,000  Level Jacksonville Center
Sat 11:53:55 AM 33.4664 -79.3844 208° Southwest 411 473 34,000  Level Jacksonville Center
Sat 11:54:55 AM 33.3639 -79.4506 208° Southwest 411 473 34,000  Level Jacksonville Center
Sat 11:55:55 AM 33.2714 -79.5114 209° Southwest 416 479 34,000  Level Jacksonville Center
Sat 11:56:55 AM 33.1667 -79.5750 207° Southwest 421 484 34,000 -50 Level Jacksonville Center
Sat 11:57:55 AM 33.0619 -79.6433 209° Southwest 427 491 33,900  Descending Jacksonville Center
Sat 11:58:55 AM 32.9575 -79.7114 209° Southwest 427 491 34,000 50 Climbing Jacksonville Center
Sat 11:59:55 AM 32.8525 -79.7794 209° Southwest 427 491 34,000  Level Jacksonville Center
Sat 12:00:55 PM 32.7478 -79.8472 209° Southwest 427 491 34,000  Level Jacksonville Center
Sat 12:01:55 PM 32.6428 -79.9125 208° Southwest 427 491 34,000  Level Jacksonville Center
Sat 12:02:55 PM 32.5381 -79.9800 209° Southwest 427 491 34,000  Level Jacksonville Center
Sat 12:03:55 PM 32.4331 -80.0472 208° Southwest 427 491 34,000  Level Jacksonville Center
Sat 12:04:55 PM 32.3261 -80.1144 208° Southwest 427 491 34,000  Level Jacksonville Center
Sat 12:05:55 PM 32.2078 -80.1475 193° South 427 491 34,000  Level Jacksonville Center
Sat 12:06:55 PM 32.0850 -80.1636 186° South 432 497 34,000  Level Jacksonville Center
Sat 12:07:55 PM 31.9644 -80.1842 188° South 438 504 34,000  Level Jacksonville Center
Sat 12:08:55 PM 31.8414 -80.2025 187° South 443 510 34,000  Level Jacksonville Center
Sat 12:09:55 PM 31.7231 -80.2231 188° South 443 510 34,000  Level Jacksonville Center
Sat 12:10:55 PM 31.6133 -80.2775 203° Southwest 437 503 34,000  Level Jacksonville Center
Sat 12:11:55 PM 31.5019 -80.3367 204° Southwest 432 497 34,000  Level Jacksonville Center
Sat 12:12:55 PM 31.3922 -80.3906 203° Southwest 432 497 34,000  Level Jacksonville Center
Sat 12:13:55 PM 31.2850 -80.4469 204° Southwest 432 497 34,000  Level Jacksonville Center
Sat 12:14:55 PM 31.1794 -80.5081 206° Southwest 432 497 34,000  Level Jacksonville Center
Sat 12:15:55 PM 31.0697 -80.5594 202° Southwest 427 491 34,000  Level Jacksonville Center
Sat 12:16:55 PM 30.9603 -80.6178 205° Southwest 427 491 34,000  Level Jacksonville Center
Sat 12:17:55 PM 30.8528 -80.6736 204° Southwest 427 491 34,000  Level Jacksonville Center
Sat 12:18:55 PM 30.7431 -80.7294 204° Southwest 427 491 34,000  Level Jacksonville Center
Sat 12:19:55 PM 30.6219 -80.7392 184° South 428 493 34,000  Level Jacksonville Center
Sat 12:20:55 PM 30.4967 -80.7350 178° South 433 498 34,000  Level Jacksonville Center
Sat 12:21:55 PM 30.3756 -80.7328 179° South 439 505 34,000  Level Jacksonville Center
Sat 12:22:55 PM 30.2522 -80.7283 178° South 439 505 34,000  Level Jacksonville Center
Sat 12:23:55 PM 30.1292 -80.7239 178° South 439 505 34,000  Level Jacksonville Center
Sat 12:24:55 PM 30.0058 -80.7194 178° South 439 505 34,000 -300 Level Jacksonville Center
Sat 12:25:55 PM 29.8825 -80.7175 179° South 439 505 33,400 -900 Descending Jacksonville Center
Sat 12:26:55 PM 29.7636 -80.7153 179° South 439 505 32,200 -700 Descending Jacksonville Center
Sat 12:27:55 PM 29.6444 -80.7108 178° South 433 498 32,000 -57 Descending Jacksonville Center
Sat 12:30:24 PM 29.3425 -80.7006 178° South 453 521 32,000  Level Miami Center
Sat 12:31:24 PM 29.2194 -80.6986 179° South 448 516 32,000  Level Miami Center
Sat 12:32:24 PM 29.0986 -80.6944 178° South 443 510 32,000  Level Miami Center
Sat 12:33:24 PM 28.9778 -80.6878 177° South 438 504 32,000  Level Miami Center
Sat 12:34:24 PM 28.8547 -80.6858 179° South 438 504 32,000  Level Miami Center
Sat 12:35:24 PM 28.7361 -80.6772 176° South 438 504 32,000 -50 Level Miami Center
Sat 12:36:24 PM 28.6103 -80.6161 157° South 444 511 31,900 -750 Descending Miami Center
Sat 12:37:24 PM 28.4967 -80.5744 162° South 444 511 30,500 -1,425 Descending Miami Center
Sat 12:40:24 PM 28.1742 -80.4531 142° Southeast 427 491 26,200 -1,760 Descending Miami Center
Sat 12:42:24 PM 27.9281 -80.3608 162° South 441 507 21,700 -2,200 Descending Miami Center
Sat 12:43:24 PM 27.8122 -80.3197 163° South 434 499 19,600 -2,050 Descending Miami Center
Sat 12:44:24 PM 27.7192 -80.2839 161° South 417 480 17,600 -2,050 Descending Miami Center
Sat 12:45:24 PM 27.6136 -80.2481 163° South 403 464 15,500 -2,300 Descending Miami Center
Sat 12:46:24 PM 27.5039 -80.2050 161° South 392 451 13,000 -2,350 Descending Miami Center
Sat 12:47:24 PM 27.4108 -80.1719 162° South 371 427 10,800 -1,500 Descending Miami Center
Sat 12:48:24 PM 27.3300 -80.1439 163° South 324 373 10,000 -400 Descending Miami Center
Sat 12:49:24 PM 27.2572 -80.1325 172° South 303 349 10,000 -650 Level Miami Center
Sat 12:50:24 PM 27.1847 -80.1000 158° South 283 326 8,700 -1,800 Descending Miami Center
Sat 12:51:24 PM 27.1083 -80.0606 155° Southeast 273 314 6,400 -2,100 Descending Miami Center
Sat 12:52:24 PM 27.0464 -80.0286 155° Southeast 258 297 4,500 -1,200 Descending Miami Center
Sat 12:53:24 PM 26.9886 -80.0014 157° South 239 275 4,000 -250 Descending Miami Center
Sat 12:54:24 PM 26.9300 -80.0092 187° South 233 268 4,000  Level Miami Center
Sat 12:55:24 PM 26.8789 -80.0472 214° Southwest 222 255 4,000  Level Miami Center
Sat 12:57:00 PM 26.7948 -80.1905 265° West  Level FlightAware Approximate
Sat 01:04:00 PM 26.6832 -80.0956 110° East  Level Estimated
Sat 01:05:00 PM 26.6832 -80.0956 110° East  Level Estimated
Sat 01:06:00 PM 26.6832 -80.0956 110° East  Level Estimated
Sat 01:07:00 PM 26.6832 -80.0956 110° East  Level Estimated
Sat 01:08:00 PM 26.6832 -80.0956 110° East  Level Estimated
Sat 01:09:00 PM 26.6832 -80.0956 110° East  Level Estimated
Sat 01:10:00 PM 26.6832 -80.0956 110° East  Level Estimated

Login

Don't have an account? Register now (free) for customized features, flight alerts, and more!